Time;durP1;ratioP1;P1;durP2;ratioP2;P2;SDS_P1;SDS_P2;PMS_P1;PMS_P2;Temp;Humidity;BMP_temperature;BMP_pressure;BME280_temperature;BME280_humidity;BME280_pressure;Samples;Min_cycle;Max_cycle;Signal;HPM_P1;HPM_P2
2023/01/05 00:02:13;;;;;;;37.35;5.40;;;10.40;99.90;;;;;;5071582;28;20040;-49
2023/01/05 00:04:39;;;;;;;29.73;5.80;;;10.40;99.90;;;;;;5073232;28;20047;-49
2023/01/05 00:07:04;;;;;;;33.15;5.90;;;10.40;99.90;;;;;;5076523;28;20075;-47
2023/01/05 00:09:30;;;;;;;42.22;6.47;;;10.40;99.90;;;;;;5082675;28;20097;-52
2023/01/05 00:23:05;;;;;;;36.90;5.57;;;10.30;99.90;;;;;;5054322;28;20147;-51
2023/01/05 00:25:35;;;;;;;27.70;5.72;;;10.30;99.90;;;;;;5080150;28;20048;-50
2023/01/05 00:28:01;;;;;;;36.47;5.78;;;10.30;99.90;;;;;;5073032;28;20078;-48
2023/01/05 00:30:38;;;;;;;28.60;5.65;;;10.30;99.90;;;;;;5072229;28;20096;-51
2023/01/05 00:33:10;;;;;;;37.40;6.03;;;10.30;99.90;;;;;;5071752;28;20098;-52
2023/01/05 00:35:37;;;;;;;35.10;5.60;;;10.30;99.90;;;;;;5070965;28;20082;-49
2023/01/05 00:38:04;;;;;;;33.17;5.60;;;10.30;99.90;;;;;;5072425;28;20040;-50
2023/01/05 00:40:30;;;;;;;29.73;5.70;;;10.30;99.90;;;;;;5072133;28;20507;-49
2023/01/05 00:42:56;;;;;;;34.28;6.00;;;10.30;99.90;;;;;;5072197;28;20032;-48
2023/01/05 00:45:21;;;;;;;34.20;6.07;;;10.30;99.90;;;;;;5080748;28;20039;-50
2023/01/05 00:47:50;;;;;;;37.08;5.80;;;10.30;99.90;;;;;;5072066;28;20126;-50
2023/01/05 00:50:17;;;;;;;32.67;5.75;;;10.30;99.90;;;;;;5071705;28;20049;-49
2023/01/05 00:52:43;;;;;;;34.63;6.68;;;10.30;99.90;;;;;;5072103;28;20067;-48
2023/01/05 00:55:09;;;;;;;35.72;6.65;;;10.30;99.90;;;;;;5075151;28;20052;-51
2023/01/05 00:57:35;;;;;;;37.13;5.68;;;10.20;99.90;;;;;;5070744;28;20035;-50
2023/01/05 01:00:01;;;;;;;38.47;6.65;;;10.20;99.90;;;;;;5071548;28;20032;-48
2023/01/05 01:02:27;;;;;;;39.33;6.72;;;10.20;99.90;;;;;;5072166;28;20126;-48
2023/01/05 01:04:53;;;;;;;36.97;5.95;;;10.20;99.90;;;;;;5070004;28;20549;-50
2023/01/05 01:07:18;;;;;;;38.13;5.75;;;10.20;99.90;;;;;;5071251;28;20033;-48
2023/01/05 01:09:44;;;;;;;34.10;6.30;;;10.20;99.90;;;;;;5071786;28;20040;-48
2023/01/05 01:12:10;;;;;;;36.88;6.13;;;10.20;99.90;;;;;;5070361;28;20454;-50
2023/01/05 01:14:37;;;;;;;35.63;5.72;;;10.10;99.90;;;;;;5071741;28;20064;-49
2023/01/05 01:17:03;;;;;;;31.40;5.75;;;10.20;99.90;;;;;;5070995;28;20036;-50
2023/01/05 01:19:28;;;;;;;32.60;4.93;;;10.10;99.90;;;;;;5071415;28;20051;-50
2023/01/05 01:21:54;;;;;;;30.08;5.30;;;10.10;99.90;;;;;;5078197;28;20072;-49
2023/01/05 01:24:23;;;;;;;27.23;5.65;;;10.10;99.90;;;;;;5071045;28;20037;-52
2023/01/05 01:26:50;;;;;;;28.65;5.13;;;10.20;99.90;;;;;;5071272;28;20123;-48
2023/01/05 01:29:16;;;;;;;34.88;5.68;;;10.20;99.90;;;;;;5071231;28;20045;-50
2023/01/05 01:31:43;;;;;;;25.15;5.22;;;10.20;99.90;;;;;;5071514;28;20407;-47
2023/01/05 01:34:10;;;;;;;27.27;4.97;;;10.20;99.90;;;;;;5069881;28;20101;-51
2023/01/05 01:36:36;;;;;;;30.67;5.50;;;10.20;99.90;;;;;;5071107;28;20452;-49
2023/01/05 01:39:01;;;;;;;33.30;5.10;;;10.20;99.90;;;;;;5071328;28;20115;-48
2023/01/05 01:41:27;;;;;;;33.80;5.63;;;10.10;99.90;;;;;;5072653;28;20040;-48
2023/01/05 01:43:54;;;;;;;29.60;5.47;;;10.10;99.90;;;;;;5080334;28;20434;-47
2023/01/05 01:46:21;;;;;;;29.85;5.05;;;10.10;99.90;;;;;;5075170;28;20067;-50
2023/01/05 01:48:59;;;;;;;30.45;5.55;;;10.10;99.90;;;;;;5072549;28;20481;-48
2023/01/05 01:51:44;;;;;;;37.95;4.88;;;10.10;99.90;;;;;;5070246;28;20450;-51
2023/01/05 01:54:14;;;;;;;30.42;4.88;;;10.10;99.90;;;;;;5069410;28;20041;-49
2023/01/05 01:56:52;;;;;;;41.00;6.50;;;10.00;99.90;;;;;;5070190;28;20047;-52
2023/01/05 01:59:18;;;;;;;33.40;5.10;;;10.10;99.90;;;;;;5069477;28;20040;-52
2023/01/05 02:01:44;;;;;;;26.13;5.05;;;10.10;99.90;;;;;;5070981;28;20089;-50
2023/01/05 02:04:10;;;;;;;28.02;5.38;;;10.10;99.90;;;;;;5071078;28;20396;-52
2023/01/05 02:06:37;;;;;;;29.70;5.38;;;10.10;99.90;;;;;;5072067;28;20072;-50
2023/01/05 02:09:04;;;;;;;27.38;4.82;;;10.10;99.90;;;;;;5080665;28;20040;-49
2023/01/05 02:11:48;;;;;;;33.47;4.90;;;10.10;99.90;;;;;;5070791;28;20101;-51
2023/01/05 02:14:25;;;;;;;26.52;5.55;;;10.10;99.90;;;;;;5070572;28;20051;-50
2023/01/05 02:17:03;;;;;;;26.55;4.90;;;10.10;99.90;;;;;;5070040;28;20048;-50
2023/01/05 02:20:06;;;;;;;35.25;6.18;;;10.10;99.90;;;;;;5070374;28;20071;-50
2023/01/05 02:23:03;;;;;;;31.23;5.63;;;10.00;99.90;;;;;;5053368;28;20052;-50
2023/01/05 02:26:01;;;;;;;26.70;5.22;;;10.00;99.90;;;;;;5069740;28;20036;-46
2023/01/05 02:28:48;;;;;;;24.83;4.90;;;10.00;99.90;;;;;;5056827;28;20052;-51
2023/01/05 02:31:17;;;;;;;23.20;4.28;;;10.00;99.90;;;;;;5051908;28;20057;-49
2023/01/05 02:34:14;;;;;;;31.58;5.90;;;10.00;99.90;;;;;;5067683;28;20036;-50
2023/01/05 02:37:00;;;;;;;28.70;5.28;;;9.90;99.90;;;;;;5069748;28;20032;-52
2023/01/05 02:39:33;;;;;;;26.25;5.07;;;9.90;99.90;;;;;;5069834;28;20086;-48
2023/01/05 02:42:12;;;;;;;31.92;5.05;;;9.90;99.90;;;;;;5070336;28;20036;-50
2023/01/05 02:44:37;;;;;;;33.67;6.25;;;10.00;99.90;;;;;;5070588;28;20488;-49
2023/01/05 02:47:26;;;;;;;30.10;4.93;;;9.90;99.90;;;;;;5070262;28;20037;-53
2023/01/05 02:50:12;;;;;;;35.58;5.10;;;9.90;99.90;;;;;;5070260;28;20496;-49
2023/01/05 02:52:53;;;;;;;27.45;5.18;;;9.90;99.90;;;;;;5065537;28;20078;-47
2023/01/05 02:55:28;;;;;;;32.22;4.85;;;9.90;99.90;;;;;;5070393;28;20387;-49
2023/01/05 02:58:08;;;;;;;27.40;4.53;;;9.80;99.90;;;;;;5070275;28;20460;-47
2023/01/05 03:00:51;;;;;;;32.42;5.10;;;9.90;99.90;;;;;;5070562;28;20036;-50
2023/01/05 03:03:25;;;;;;;30.80;5.15;;;9.80;99.90;;;;;;5069354;28;20028;-47
2023/01/05 03:06:00;;;;;;;30.02;4.72;;;9.90;99.90;;;;;;5070428;28;20159;-52
2023/01/05 03:08:31;;;;;;;32.03;5.53;;;9.90;99.90;;;;;;5070451;28;20047;-48
2023/01/05 03:14:02;;;;;;;30.55;4.72;;;9.80;99.90;;;;;;5070104;28;20056;-50
2023/01/05 03:16:33;;;;;;;28.60;4.50;;;9.80;99.90;;;;;;5071074;28;20120;-50
2023/01/05 03:35:45;;;;;;;33.47;5.25;;;9.80;99.90;;;;;;5072421;28;20103;-49
2023/01/05 03:38:40;;;;;;;28.58;5.13;;;9.90;99.90;;;;;;5073210;28;20066;-48
2023/01/05 03:41:09;;;;;;;30.42;4.95;;;9.90;99.90;;;;;;5073428;28;20041;-49
2023/01/05 03:43:38;;;;;;;28.23;4.30;;;9.90;99.90;;;;;;5073238;28;20036;-49
2023/01/05 03:46:17;;;;;;;33.33;4.50;;;9.90;99.90;;;;;;5073448;28;20129;-51
2023/01/05 03:48:42;;;;;;;27.98;5.15;;;10.00;99.90;;;;;;5073164;28;20044;-52
2023/01/05 03:51:08;;;;;;;30.88;4.70;;;10.00;99.90;;;;;;5073184;28;20048;-48
2023/01/05 03:53:34;;;;;;;25.90;4.55;;;10.00;99.90;;;;;;5073366;28;20394;-50
2023/01/05 03:55:59;;;;;;;28.23;4.90;;;10.00;99.90;;;;;;5073006;28;20131;-46
2023/01/05 03:58:25;;;;;;;28.95;4.97;;;9.80;99.90;;;;;;5072661;28;20037;-48
2023/01/05 04:00:51;;;;;;;27.35;5.22;;;10.10;99.90;;;;;;5073463;28;20039;-46
2023/01/05 04:03:17;;;;;;;31.20;4.90;;;10.10;99.90;;;;;;5070689;28;20033;-49
2023/01/05 04:05:43;;;;;;;26.23;4.97;;;10.00;99.90;;;;;;5071298;28;20032;-47
2023/01/05 04:08:09;;;;;;;22.58;4.35;;;10.10;99.90;;;;;;5072542;28;20078;-48
2023/01/05 04:10:34;;;;;;;29.42;5.15;;;10.00;99.90;;;;;;5072968;28;20457;-47
2023/01/05 04:13:00;;;;;;;24.90;4.50;;;10.10;99.90;;;;;;5076503;28;20041;-47
2023/01/05 04:15:26;;;;;;;24.55;4.47;;;10.10;99.90;;;;;;5072955;28;20044;-49
2023/01/05 04:17:51;;;;;;;28.95;4.85;;;10.10;99.90;;;;;;5072537;28;20400;-49
2023/01/05 04:20:17;;;;;;;29.48;4.75;;;10.10;99.90;;;;;;5072591;28;20060;-50
2023/01/05 04:22:43;;;;;;;28.00;5.25;;;10.10;99.90;;;;;;5071593;28;20036;-50
2023/01/05 04:25:09;;;;;;;31.77;4.53;;;10.10;99.90;;;;;;5072818;28;20040;-49
2023/01/05 04:27:34;;;;;;;30.02;4.97;;;10.00;99.90;;;;;;5072050;28;20472;-49
2023/01/05 04:30:00;;;;;;;35.90;6.20;;;10.00;99.90;;;;;;5071891;28;20056;-51
2023/01/05 04:32:26;;;;;;;32.85;5.18;;;10.00;99.90;;;;;;5081576;28;20044;-49
2023/01/05 04:34:51;;;;;;;28.65;4.70;;;9.90;99.90;;;;;;5073256;28;20036;-52
2023/01/05 04:37:17;;;;;;;25.17;4.60;;;9.90;99.90;;;;;;5072661;28;20044;-48
2023/01/05 04:39:43;;;;;;;30.63;5.43;;;9.90;99.90;;;;;;5072191;28;20035;-46
2023/01/05 04:42:08;;;;;;;27.80;5.07;;;10.00;99.90;;;;;;5072244;28;20094;-48
2023/01/05 04:44:34;;;;;;;26.55;4.90;;;9.90;99.90;;;;;;5072091;28;20098;-49
2023/01/05 04:47:00;;;;;;;28.80;4.63;;;9.90;99.90;;;;;;5083813;28;20082;-48
2023/01/05 04:49:25;;;;;;;28.58;5.20;;;10.00;99.90;;;;;;5070526;28;20048;-49
2023/01/05 04:51:51;;;;;;;29.35;4.47;;;10.00;99.90;;;;;;5072237;28;20068;-48
2023/01/05 04:54:17;;;;;;;31.90;5.18;;;10.00;99.90;;;;;;5072033;28;20495;-51
2023/01/05 04:56:43;;;;;;;27.70;4.97;;;10.00;99.90;;;;;;5071820;28;20036;-50
2023/01/05 04:59:09;;;;;;;22.55;4.22;;;9.90;99.90;;;;;;5071377;28;20071;-53
2023/01/05 05:01:35;;;;;;;28.92;4.10;;;10.00;99.90;;;;;;5071755;28;20082;-48
2023/01/05 05:04:00;;;;;;;27.27;4.95;;;11.00;99.90;;;;;;5071505;28;20123;-52
2023/01/05 05:06:26;;;;;;;25.15;4.05;;;10.10;99.90;;;;;;5082514;28;20546;-50
2023/01/05 05:08:51;;;;;;;32.47;5.40;;;10.10;99.90;;;;;;5072139;28;21263;-52
2023/01/05 05:11:17;;;;;;;27.83;4.97;;;10.10;99.90;;;;;;5072172;28;20039;-49
2023/01/05 05:13:43;;;;;;;18.08;4.05;;;10.10;99.90;;;;;;5071634;28;20377;-49
2023/01/05 05:16:09;;;;;;;26.60;4.30;;;10.00;99.90;;;;;;5071606;28;20111;-51
2023/01/05 05:18:34;;;;;;;24.77;4.68;;;10.10;99.90;;;;;;5071360;28;20063;-53
2023/01/05 05:21:00;;;;;;;22.02;4.15;;;10.00;99.90;;;;;;5080183;28;20115;-48
2023/01/05 05:23:26;;;;;;;29.15;4.95;;;10.00;99.90;;;;;;5074339;28;20036;-49
2023/01/05 05:25:52;;;;;;;32.53;5.18;;;10.10;99.90;;;;;;5071015;28;20052;-46
2023/01/05 05:28:19;;;;;;;26.73;4.57;;;10.10;99.90;;;;;;5069870;28;20040;-48
2023/01/05 05:30:44;;;;;;;29.33;5.10;;;10.10;99.90;;;;;;5070606;28;20041;-52
2023/01/05 05:33:10;;;;;;;27.13;4.55;;;10.00;99.90;;;;;;5070468;28;20071;-49
2023/01/05 05:35:36;;;;;;;28.40;4.38;;;10.10;99.90;;;;;;5069887;28;20044;-46
2023/01/05 05:38:02;;;;;;;24.00;4.45;;;10.10;99.90;;;;;;5070631;28;20135;-49
2023/01/05 05:40:28;;;;;;;25.25;4.97;;;10.10;99.90;;;;;;5070218;28;20086;-49
2023/01/05 05:42:54;;;;;;;26.88;4.53;;;10.10;99.90;;;;;;5069497;28;20044;-47
2023/01/05 05:45:19;;;;;;;28.35;4.85;;;10.10;99.90;;;;;;5071239;28;20107;-52
2023/01/05 05:47:45;;;;;;;25.23;4.10;;;10.10;99.90;;;;;;5071124;28;20036;-49
2023/01/05 05:50:11;;;;;;;26.13;5.30;;;10.10;99.90;;;;;;5071093;28;20407;-47
2023/01/05 05:52:37;;;;;;;29.55;4.72;;;10.10;99.90;;;;;;5070804;28;20037;-47
2023/01/05 05:55:03;;;;;;;29.45;5.60;;;10.10;99.90;;;;;;5070969;28;20048;-48
2023/01/05 05:57:28;;;;;;;19.67;3.90;;;10.10;99.90;;;;;;5071384;28;20049;-48
2023/01/05 05:59:54;;;;;;;25.75;4.25;;;10.10;99.90;;;;;;5073282;28;20545;-51
2023/01/05 06:02:20;;;;;;;31.00;4.88;;;10.00;99.90;;;;;;5071139;28;20068;-48
2023/01/05 06:04:45;;;;;;;26.67;4.40;;;10.00;99.90;;;;;;5071069;28;20074;-50
2023/01/05 06:07:11;;;;;;;28.95;5.07;;;10.10;99.90;;;;;;5069354;28;20053;-52
2023/01/05 06:09:37;;;;;;;27.48;4.72;;;10.00;99.90;;;;;;5070572;28;20108;-48
2023/01/05 06:12:03;;;;;;;30.05;4.82;;;10.00;99.90;;;;;;5069108;28;20476;-48
2023/01/05 06:14:28;;;;;;;24.17;4.55;;;10.10;99.90;;;;;;5078287;28;20499;-46
2023/01/05 06:16:54;;;;;;;22.13;3.80;;;10.10;99.90;;;;;;5070873;28;20040;-49
2023/01/05 06:19:20;;;;;;;24.92;4.30;;;10.10;99.90;;;;;;5069068;28;20080;-47
2023/01/05 06:21:45;;;;;;;25.17;4.18;;;10.10;99.90;;;;;;5070169;28;20040;-48
2023/01/05 06:24:11;;;;;;;23.10;4.72;;;10.10;99.90;;;;;;5070488;28;20119;-50
2023/01/05 06:26:37;;;;;;;26.13;4.13;;;10.00;99.90;;;;;;5074489;28;20036;-50
2023/01/05 06:29:02;;;;;;;28.02;5.07;;;10.10;99.90;;;;;;5077653;28;20158;-47
2023/01/05 06:31:28;;;;;;;22.63;4.13;;;10.10;99.90;;;;;;5070468;28;20045;-52
2023/01/05 06:33:54;;;;;;;21.17;4.07;;;10.10;99.90;;;;;;5070661;28;20040;-50
2023/01/05 06:36:20;;;;;;;25.80;4.93;;;10.10;99.90;;;;;;5067904;28;20032;-46
2023/01/05 06:38:45;;;;;;;25.55;4.50;;;10.00;99.90;;;;;;5070397;28;20247;-48
2023/01/05 06:41:11;;;;;;;26.30;4.10;;;10.00;99.90;;;;;;5070071;28;20466;-48
2023/01/05 06:43:37;;;;;;;26.98;3.88;;;10.10;99.90;;;;;;5080341;28;20032;-49
2023/01/05 06:46:03;;;;;;;21.83;4.45;;;10.00;99.90;;;;;;5068956;28;20064;-50
2023/01/05 06:48:28;;;;;;;24.45;4.32;;;10.00;99.90;;;;;;5069139;28;20361;-50
2023/01/05 06:50:54;;;;;;;26.48;4.22;;;10.10;99.90;;;;;;5072870;28;20096;-49
2023/01/05 06:53:20;;;;;;;22.55;3.67;;;10.00;99.90;;;;;;5080785;28;20435;-48
2023/01/05 06:55:45;;;;;;;24.15;4.20;;;10.00;99.90;;;;;;5072776;28;20347;-47
2023/01/05 06:58:11;;;;;;;35.30;4.82;;;10.00;99.90;;;;;;5077280;28;20044;-49
2023/01/05 07:00:37;;;;;;;21.17;3.90;;;10.00;99.90;;;;;;5074441;28;20046;-51
2023/01/05 07:03:03;;;;;;;23.80;4.32;;;9.90;99.90;;;;;;5073846;28;20384;-48
2023/01/05 07:05:28;;;;;;;27.38;3.90;;;9.90;99.90;;;;;;5072412;28;20033;-50
2023/01/05 07:07:54;;;;;;;25.58;4.13;;;9.90;99.90;;;;;;5075431;28;20074;-49
2023/01/05 07:10:20;;;;;;;20.17;3.42;;;9.90;99.90;;;;;;5073144;28;20044;-47
2023/01/05 07:12:45;;;;;;;27.30;5.00;;;9.90;99.90;;;;;;5073867;28;20044;-50
2023/01/05 07:15:11;;;;;;;26.10;4.40;;;9.90;99.90;;;;;;5073860;28;20040;-50
2023/01/05 07:17:37;;;;;;;22.52;4.57;;;9.90;99.90;;;;;;5073749;28;20036;-49
2023/01/05 07:20:05;;;;;;;24.65;3.80;;;9.90;99.90;;;;;;5072526;28;20032;-47
2023/01/05 07:22:30;;;;;;;25.42;4.00;;;9.90;99.90;;;;;;5073868;28;20029;-48
2023/01/05 07:24:57;;;;;;;23.85;4.50;;;9.90;99.90;;;;;;5073935;28;20515;-49
2023/01/05 07:27:23;;;;;;;23.23;4.20;;;9.90;99.90;;;;;;5072190;28;20044;-48
2023/01/05 07:29:49;;;;;;;26.42;4.18;;;10.00;99.90;;;;;;5072990;28;20057;-48
2023/01/05 07:32:14;;;;;;;22.48;4.05;;;10.00;99.90;;;;;;5073656;28;20093;-51
2023/01/05 07:34:40;;;;;;;27.33;4.50;;;9.90;99.90;;;;;;5073659;28;20123;-46
2023/01/05 07:37:06;;;;;;;21.35;3.65;;;9.90;99.90;;;;;;5079088;28;20044;-52
2023/01/05 07:39:31;;;;;;;26.50;4.78;;;9.90;99.90;;;;;;5073725;28;20056;-47
2023/01/05 07:41:57;;;;;;;30.25;4.57;;;9.90;99.90;;;;;;5072933;28;20036;-50
2023/01/05 07:44:23;;;;;;;21.77;4.18;;;10.00;99.90;;;;;;5072179;28;20082;-49
2023/01/05 07:46:49;;;;;;;26.33;4.65;;;10.00;99.90;;;;;;5073497;28;20041;-47
2023/01/05 07:49:14;;;;;;;24.95;4.97;;;10.00;99.90;;;;;;5070472;28;20045;-49
2023/01/05 07:51:40;;;;;;;29.00;4.63;;;10.00;99.90;;;;;;5073124;28;20040;-49
2023/01/05 07:54:06;;;;;;;26.17;3.92;;;10.10;99.90;;;;;;5072770;28;20037;-50
2023/01/05 07:56:32;;;;;;;28.00;4.20;;;10.10;99.90;;;;;;5072750;28;20047;-51
2023/01/05 07:58:58;;;;;;;26.67;3.90;;;10.00;99.90;;;;;;5072871;28;20045;-50
2023/01/05 08:01:24;;;;;;;23.35;4.25;;;10.00;99.90;;;;;;5073142;28;20033;-50
2023/01/05 08:03:49;;;;;;;24.63;3.92;;;9.90;99.90;;;;;;5070364;28;20039;-49
2023/01/05 08:06:17;;;;;;;28.88;4.75;;;10.00;99.90;;;;;;5067727;28;20472;-48
2023/01/05 08:08:44;;;;;;;24.50;4.57;;;9.90;99.90;;;;;;5069195;28;20499;-50
2023/01/05 08:11:15;;;;;;;27.05;4.30;;;9.90;99.90;;;;;;5069038;28;20159;-48
2023/01/05 08:14:03;;;;;;;27.65;4.13;;;10.00;99.90;;;;;;5069675;28;20490;-49
2023/01/05 08:16:30;;;;;;;25.25;4.22;;;10.00;99.90;;;;;;5069349;28;20036;-48
2023/01/05 08:18:57;;;;;;;24.08;3.78;;;9.90;99.90;;;;;;5069413;28;20032;-50
2023/01/05 08:21:23;;;;;;;28.05;4.43;;;10.00;99.90;;;;;;5069091;28;20166;-49
2023/01/05 08:23:49;;;;;;;32.35;5.32;;;10.00;99.90;;;;;;5069775;28;20119;-49
2023/01/05 08:26:18;;;;;;;33.08;4.93;;;10.00;99.90;;;;;;5069211;28;20506;-47
2023/01/05 08:28:44;;;;;;;27.58;4.78;;;10.00;99.90;;;;;;5066563;28;20166;-46
2023/01/05 08:31:17;;;;;;;23.83;4.82;;;10.00;99.90;;;;;;5068180;28;20049;-49
2023/01/05 08:33:43;;;;;;;31.42;5.55;;;10.00;99.90;;;;;;5067121;28;20150;-47
2023/01/05 08:36:12;;;;;;;22.85;4.55;;;10.00;99.90;;;;;;5069040;28;20159;-47
2023/01/05 08:38:38;;;;;;;27.05;4.85;;;10.00;99.90;;;;;;5068344;28;20037;-49
2023/01/05 08:41:04;;;;;;;31.23;4.88;;;10.00;99.90;;;;;;5069009;28;20058;-47
2023/01/05 08:43:29;;;;;;;30.38;5.32;;;10.00;99.90;;;;;;5069420;28;20040;-48
2023/01/05 08:45:55;;;;;;;28.05;3.95;;;10.00;99.90;;;;;;5069144;28;20115;-48
2023/01/05 08:48:21;;;;;;;37.17;4.85;;;10.00;99.90;;;;;;5069104;28;20055;-47
2023/01/05 08:50:47;;;;;;;22.40;4.85;;;10.10;99.90;;;;;;5069195;28;20049;-46
2023/01/05 08:53:12;;;;;;;23.42;4.63;;;10.00;99.90;;;;;;5069048;28;20032;-47
2023/01/05 08:55:38;;;;;;;30.20;5.25;;;10.00;99.90;;;;;;5068512;28;20141;-46
2023/01/05 08:58:05;;;;;;;29.58;4.68;;;10.00;99.90;;;;;;5065325;28;20082;-51
2023/01/05 09:00:32;;;;;;;21.88;4.47;;;10.90;99.90;;;;;;5066207;28;20503;-48
2023/01/05 09:02:57;;;;;;;36.15;5.32;;;10.00;99.90;;;;;;5061121;28;20060;-47
2023/01/05 09:05:23;;;;;;;28.25;5.50;;;10.00;99.90;;;;;;5067459;28;20041;-49
2023/01/05 09:07:49;;;;;;;26.83;4.35;;;10.00;99.90;;;;;;5068589;28;20048;-53
2023/01/05 09:10:14;;;;;;;29.50;5.75;;;10.00;99.90;;;;;;5069722;28;20044;-53
2023/01/05 09:12:40;;;;;;;33.33;5.03;;;10.00;99.90;;;;;;5069045;28;20040;-50
2023/01/05 09:15:06;;;;;;;26.95;4.40;;;9.90;99.90;;;;;;5069315;28;20114;-47
2023/01/05 09:17:34;;;;;;;28.60;5.10;;;9.90;99.90;;;;;;5068275;28;20043;-51
2023/01/05 09:20:02;;;;;;;29.95;6.28;;;9.90;99.90;;;;;;5067033;28;20040;-50
2023/01/05 09:22:29;;;;;;;30.90;6.70;;;10.00;99.90;;;;;;5067878;28;20036;-49
2023/01/05 09:24:55;;;;;;;30.50;7.07;;;10.00;99.90;;;;;;5066193;28;20504;-47
2023/01/05 09:27:20;;;;;;;29.75;6.95;;;10.00;99.90;;;;;;5066817;28;20087;-49
2023/01/05 09:29:47;;;;;;;28.48;7.18;;;10.10;99.90;;;;;;5066519;28;20454;-49
2023/01/05 09:32:13;;;;;;;35.05;9.45;;;10.10;99.90;;;;;;5068312;28;20098;-50
2023/01/05 09:34:39;;;;;;;40.65;11.50;;;10.00;99.90;;;;;;5069647;28;20048;-48
2023/01/05 09:37:04;;;;;;;43.72;12.70;;;10.10;99.90;;;;;;5066047;28;20128;-48
2023/01/05 09:39:30;;;;;;;44.22;14.32;;;10.00;99.90;;;;;;5065059;28;20115;-49
2023/01/05 09:42:03;;;;;;;42.13;13.27;;;10.00;99.90;;;;;;5066817;28;20055;-48
2023/01/05 09:44:32;;;;;;;38.95;11.50;;;10.00;99.90;;;;;;5064824;28;20049;-47
2023/01/05 09:47:29;;;;;;;36.55;10.98;;;10.00;99.90;;;;;;5066044;28;20071;-45
2023/01/05 09:49:57;;;;;;;34.08;9.20;;;10.00;99.90;;;;;;5067278;28;20099;-48
2023/01/05 09:52:24;;;;;;;23.70;6.78;;;10.10;99.90;;;;;;5067865;28;20082;-48
2023/01/05 09:54:49;;;;;;;36.83;9.63;;;10.10;99.90;;;;;;5068172;28;20032;-50
2023/01/05 09:57:22;;;;;;;36.55;11.57;;;10.10;99.90;;;;;;5067319;28;20044;-50
2023/01/05 09:59:51;;;;;;;38.22;11.52;;;10.10;99.90;;;;;;5065986;28;20037;-48
2023/01/05 10:02:28;;;;;;;39.33;10.77;;;10.10;99.90;;;;;;5067715;28;20044;-49
2023/01/05 10:04:54;;;;;;;30.85;6.68;;;10.10;99.90;;;;;;5065828;28;20468;-46
2023/01/05 10:07:52;;;;;;;25.05;5.10;;;10.20;99.90;;;;;;5067806;28;20055;-51
2023/01/05 10:10:37;;;;;;;26.90;4.15;;;10.10;99.90;;;;;;5068210;28;20399;-49
2023/01/05 10:13:05;;;;;;;27.85;4.88;;;10.20;99.90;;;;;;5069288;28;20044;-49
2023/01/05 10:15:43;;;;;;;25.73;4.25;;;10.30;99.90;;;;;;5066375;28;20040;-53
2023/01/05 10:18:19;;;;;;;23.05;3.50;;;10.20;99.90;;;;;;5067345;28;20036;-51
2023/01/05 10:21:16;;;;;;;24.58;4.25;;;10.20;99.90;;;;;;5067511;28;20071;-50
2023/01/05 10:23:57;;;;;;;20.17;4.18;;;10.20;99.90;;;;;;5068658;28;20619;-48
2023/01/05 10:26:43;;;;;;;25.70;3.65;;;10.30;99.90;;;;;;5065033;28;20037;-48
2023/01/05 10:29:12;;;;;;;18.50;3.55;;;10.40;99.90;;;;;;5068740;28;20118;-48
2023/01/05 10:31:45;;;;;;;21.13;4.32;;;10.30;99.90;;;;;;5067899;28;20476;-50
2023/01/05 10:34:20;;;;;;;28.10;4.47;;;10.40;99.90;;;;;;5065877;28;20036;-46
2023/01/05 10:37:12;;;;;;;28.55;4.43;;;10.40;99.90;;;;;;5067100;28;20655;-49
2023/01/05 10:39:47;;;;;;;23.77;4.57;;;10.40;99.90;;;;;;5066199;28;20079;-48
2023/01/05 10:42:17;;;;;;;21.73;3.88;;;10.40;99.90;;;;;;5067705;28;20567;-49
2023/01/05 10:44:57;;;;;;;30.35;4.07;;;10.40;99.90;;;;;;5066527;28;20472;-49
2023/01/05 10:47:26;;;;;;;23.95;4.22;;;10.40;99.90;;;;;;5066764;28;20051;-50
2023/01/05 10:49:52;;;;;;;23.60;4.78;;;10.40;99.90;;;;;;5066153;28;20048;-52
2023/01/05 10:52:19;;;;;;;24.38;4.03;;;10.40;99.90;;;;;;5066076;28;20064;-52
2023/01/05 10:54:49;;;;;;;21.38;3.88;;;10.30;99.90;;;;;;5067534;28;20064;-50
2023/01/05 10:57:27;;;;;;;26.17;3.97;;;10.40;99.90;;;;;;5065453;28;20048;-48
2023/01/05 10:59:59;;;;;;;22.20;4.05;;;10.40;99.90;;;;;;5067445;28;20044;-53
2023/01/05 11:02:27;;;;;;;18.92;3.50;;;10.40;99.90;;;;;;5068806;28;20403;-48
2023/01/05 11:04:54;;;;;;;22.63;3.72;;;10.40;99.90;;;;;;5066566;28;20040;-50
2023/01/05 11:07:21;;;;;;;24.00;3.47;;;10.40;99.90;;;;;;5067926;28;20048;-51
2023/01/05 11:09:47;;;;;;;23.13;3.97;;;10.40;99.90;;;;;;5062007;28;20041;-49
2023/01/05 11:12:22;;;;;;;21.45;3.70;;;10.40;99.90;;;;;;5062251;28;20033;-50
2023/01/05 11:14:53;;;;;;;20.95;3.67;;;10.30;99.90;;;;;;5060304;28;20037;-48
2023/01/05 11:17:22;;;;;;;21.60;4.07;;;10.30;99.90;;;;;;5060034;28;20040;-48
2023/01/05 11:19:54;;;;;;;24.65;4.15;;;10.40;99.90;;;;;;5061881;28;20043;-50
2023/01/05 11:22:29;;;;;;;20.10;3.60;;;10.30;99.90;;;;;;5063724;28;20070;-50
2023/01/05 11:25:28;;;;;;;22.23;4.15;;;10.30;99.90;;;;;;5063140;28;20071;-48
2023/01/05 11:28:15;;;;;;;26.63;4.03;;;10.30;99.90;;;;;;5061107;28;20476;-50
2023/01/05 11:31:02;;;;;;;26.45;3.83;;;10.20;99.90;;;;;;5058040;28;20067;-49
2023/01/05 11:33:29;;;;;;;20.40;3.45;;;10.30;99.90;;;;;;5063178;28;20037;-48
2023/01/05 11:35:56;;;;;;;20.58;3.78;;;10.20;99.90;;;;;;5062107;28;20120;-49
2023/01/05 11:38:25;;;;;;;21.85;4.03;;;10.20;99.90;;;;;;5065312;28;20101;-49
2023/01/05 11:40:52;;;;;;;23.90;4.75;;;10.10;99.90;;;;;;5070284;28;20032;-48
2023/01/05 11:43:20;;;;;;;22.95;4.38;;;10.00;99.90;;;;;;5068613;28;20051;-47
2023/01/05 11:45:52;;;;;;;23.95;4.05;;;10.10;99.90;;;;;;5068287;28;20032;-48
2023/01/05 11:48:25;;;;;;;28.23;5.57;;;10.10;99.90;;;;;;5068883;28;20331;-51
2023/01/05 11:50:56;;;;;;;28.70;5.25;;;10.10;99.90;;;;;;5069550;28;20363;-51
2023/01/05 11:53:30;;;;;;;26.98;5.60;;;10.20;99.90;;;;;;5064242;28;20036;-51
2023/01/05 11:56:00;;;;;;;25.73;5.47;;;10.30;99.90;;;;;;5069208;28;20036;-49
2023/01/05 11:58:33;;;;;;;29.55;6.22;;;10.20;99.90;;;;;;5068263;28;20044;-48
2023/01/05 12:01:24;;;;;;;34.47;5.22;;;10.20;99.90;;;;;;5068935;28;20032;-50
2023/01/05 12:04:05;;;;;;;24.90;5.15;;;10.40;99.90;;;;;;5060341;28;20047;-49
2023/01/05 12:07:15;;;;;;;30.42;4.55;;;10.30;99.90;;;;;;5069135;28;20115;-48
2023/01/05 12:10:24;;;;;;;24.00;4.50;;;10.40;99.90;;;;;;5058265;28;20094;-49
2023/01/05 12:12:49;;;;;;;32.53;4.68;;;10.40;99.90;;;;;;5061946;28;20102;-50
2023/01/05 12:15:22;;;;;;;26.13;4.10;;;10.50;99.90;;;;;;5070044;28;20044;-48
2023/01/05 12:17:53;;;;;;;25.10;3.97;;;10.50;99.90;;;;;;5068850;28;20079;-50
2023/01/05 12:20:27;;;;;;;28.13;4.47;;;10.40;99.90;;;;;;5069670;28;20119;-51
2023/01/05 12:23:01;;;;;;;30.50;4.90;;;10.50;99.90;;;;;;5070082;28;20541;-50
2023/01/05 12:25:36;;;;;;;22.77;4.77;;;10.50;99.90;;;;;;5069305;28;20048;-50
2023/01/05 12:28:40;;;;;;;26.60;4.78;;;10.50;99.90;;;;;;5072261;28;20329;-47
2023/01/05 12:31:12;;;;;;;27.70;4.90;;;10.50;99.90;;;;;;5069553;28;20072;-48
2023/01/05 12:34:10;;;;;;;30.48;4.22;;;10.50;99.90;;;;;;5070487;28;20041;-47
2023/01/05 12:36:47;;;;;;;22.80;4.63;;;10.50;99.90;;;;;;5068042;28;20071;-49
2023/01/05 12:39:34;;;;;;;32.75;5.35;;;10.50;99.90;;;;;;5069547;28;20072;-52
2023/01/05 12:42:34;;;;;;;24.75;4.70;;;10.50;99.90;;;;;;5068953;28;20098;-49
2023/01/05 12:45:31;;;;;;;36.00;5.63;;;10.50;99.90;;;;;;5068367;28;20036;-51
2023/01/05 12:48:12;;;;;;;26.20;4.63;;;10.50;99.90;;;;;;5068978;28;20475;-50
2023/01/05 12:50:48;;;;;;;27.60;5.07;;;10.50;99.90;;;;;;5068663;28;20129;-48
2023/01/05 12:53:34;;;;;;;27.83;4.75;;;10.50;99.90;;;;;;5068731;28;20395;-51
2023/01/05 12:56:07;;;;;;;21.92;4.78;;;10.40;99.90;;;;;;5050761;28;20098;-50
2023/01/05 12:58:41;;;;;;;24.30;4.57;;;10.50;99.90;;;;;;5068631;28;20082;-48
2023/01/05 13:01:18;;;;;;;30.60;5.43;;;10.40;99.90;;;;;;5068634;28;20551;-51
2023/01/05 13:03:55;;;;;;;28.65;4.50;;;10.30;99.90;;;;;;5069266;28;20036;-51
2023/01/05 13:06:23;;;;;;;21.77;4.07;;;10.40;99.90;;;;;;5069292;28;20036;-50
2023/01/05 13:08:53;;;;;;;22.80;4.22;;;10.40;99.90;;;;;;5069225;28;20162;-47
2023/01/05 13:11:30;;;;;;;28.88;4.90;;;10.30;99.90;;;;;;5069098;28;20043;-51
2023/01/05 13:13:59;;;;;;;28.10;4.70;;;10.30;99.90;;;;;;5068583;28;20547;-49
2023/01/05 13:16:29;;;;;;;27.85;4.97;;;10.30;99.90;;;;;;5068821;28;20043;-51
2023/01/05 13:19:09;;;;;;;29.17;5.13;;;10.30;99.90;;;;;;5068717;28;20043;-51
2023/01/05 13:21:40;;;;;;;27.15;4.95;;;10.40;99.90;;;;;;5070204;28;20047;-48
2023/01/05 13:24:11;;;;;;;31.58;4.60;;;10.30;99.90;;;;;;5070518;28;20115;-49
2023/01/05 13:26:37;;;;;;;26.30;4.40;;;10.40;99.90;;;;;;5068111;28;20102;-48